sensor_id;sensor_type;location;lat;lon;timestamp;temperature;humidity
17307;DHT22;8771;48.048;7.682;2022-11-20T00:04:38;9.60;82.70
17307;DHT22;8771;48.048;7.682;2022-11-20T00:09:40;9.50;82.70
17307;DHT22;8771;48.048;7.682;2022-11-20T00:14:43;9.50;82.90
17307;DHT22;8771;48.048;7.682;2022-11-20T00:19:45;9.50;82.90
17307;DHT22;8771;48.048;7.682;2022-11-20T00:24:47;9.50;82.80
17307;DHT22;8771;48.048;7.682;2022-11-20T00:29:51;9.50;82.70
17307;DHT22;8771;48.048;7.682;2022-11-20T00:34:52;9.50;82.80
17307;DHT22;8771;48.048;7.682;2022-11-20T00:39:54;9.50;82.80
17307;DHT22;8771;48.048;7.682;2022-11-20T00:44:58;9.40;82.70
17307;DHT22;8771;48.048;7.682;2022-11-20T00:49:59;9.40;82.70
17307;DHT22;8771;48.048;7.682;2022-11-20T00:55:01;9.40;82.70
17307;DHT22;8771;48.048;7.682;2022-11-20T01:00:06;9.40;82.70
17307;DHT22;8771;48.048;7.682;2022-11-20T01:05:08;9.40;82.70
17307;DHT22;8771;48.048;7.682;2022-11-20T01:10:10;9.40;82.70
17307;DHT22;8771;48.048;7.682;2022-11-20T01:15:13;9.40;82.80
17307;DHT22;8771;48.048;7.682;2022-11-20T01:20:15;9.40;82.90
17307;DHT22;8771;48.048;7.682;2022-11-20T01:25:17;9.40;82.90
17307;DHT22;8771;48.048;7.682;2022-11-20T01:30:21;9.40;82.80
17307;DHT22;8771;48.048;7.682;2022-11-20T01:35:23;9.40;82.80
17307;DHT22;8771;48.048;7.682;2022-11-20T01:40:24;9.30;82.80
17307;DHT22;8771;48.048;7.682;2022-11-20T01:45:56;9.30;82.90
17307;DHT22;8771;48.048;7.682;2022-11-20T01:51:00;9.40;82.90
17307;DHT22;8771;48.048;7.682;2022-11-20T01:56:05;9.30;82.80
17307;DHT22;8771;48.048;7.682;2022-11-20T02:01:10;9.40;82.70
17307;DHT22;8771;48.048;7.682;2022-11-20T02:06:16;9.30;82.70
17307;DHT22;8771;48.048;7.682;2022-11-20T02:11:20;9.30;82.70
17307;DHT22;8771;48.048;7.682;2022-11-20T02:16:25;9.30;82.80
17307;DHT22;8771;48.048;7.682;2022-11-20T02:21:33;9.30;82.90
17307;DHT22;8771;48.048;7.682;2022-11-20T02:26:46;9.20;82.90
17307;DHT22;8771;48.048;7.682;2022-11-20T02:31:49;9.20;82.90
17307;DHT22;8771;48.048;7.682;2022-11-20T02:36:52;9.30;82.90
17307;DHT22;8771;48.048;7.682;2022-11-20T02:41:56;9.30;82.80
17307;DHT22;8771;48.048;7.682;2022-11-20T02:46:59;9.30;82.80
17307;DHT22;8771;48.048;7.682;2022-11-20T02:52:01;9.20;82.90
17307;DHT22;8771;48.048;7.682;2022-11-20T02:57:04;9.10;83.00
17307;DHT22;8771;48.048;7.682;2022-11-20T03:02:06;9.10;83.80
17307;DHT22;8771;48.048;7.682;2022-11-20T03:07:08;9.00;83.00
17307;DHT22;8771;48.048;7.682;2022-11-20T03:12:12;9.00;83.10
17307;DHT22;8771;48.048;7.682;2022-11-20T03:17:15;9.00;83.10
17307;DHT22;8771;48.048;7.682;2022-11-20T03:22:17;9.00;83.10
17307;DHT22;8771;48.048;7.682;2022-11-20T03:27:21;9.00;83.00
17307;DHT22;8771;48.048;7.682;2022-11-20T03:32:23;9.00;83.00
17307;DHT22;8771;48.048;7.682;2022-11-20T03:37:24;9.00;83.00
17307;DHT22;8771;48.048;7.682;2022-11-20T03:42:28;9.00;83.10
17307;DHT22;8771;48.048;7.682;2022-11-20T03:47:48;9.00;83.00
17307;DHT22;8771;48.048;7.682;2022-11-20T03:52:50;9.00;83.00
17307;DHT22;8771;48.048;7.682;2022-11-20T03:57:53;9.00;83.00
17307;DHT22;8771;48.048;7.682;2022-11-20T04:02:57;9.00;83.00
17307;DHT22;8771;48.048;7.682;2022-11-20T04:07:59;8.90;82.90
17307;DHT22;8771;48.048;7.682;2022-11-20T04:13:03;9.00;83.00
17307;DHT22;8771;48.048;7.682;2022-11-20T04:18:05;9.00;83.00
17307;DHT22;8771;48.048;7.682;2022-11-20T04:23:07;9.00;83.00
17307;DHT22;8771;48.048;7.682;2022-11-20T04:28:10;9.00;83.00
17307;DHT22;8771;48.048;7.682;2022-11-20T04:33:12;9.00;82.90
17307;DHT22;8771;48.048;7.682;2022-11-20T04:38:14;9.00;82.90
17307;DHT22;8771;48.048;7.682;2022-11-20T04:43:17;9.00;82.80
17307;DHT22;8771;48.048;7.682;2022-11-20T04:48:19;9.10;82.90
17307;DHT22;8771;48.048;7.682;2022-11-20T04:53:22;9.10;82.90
17307;DHT22;8771;48.048;7.682;2022-11-20T04:58:26;9.10;82.90
17307;DHT22;8771;48.048;7.682;2022-11-20T05:03:28;9.10;82.90
17307;DHT22;8771;48.048;7.682;2022-11-20T05:08:31;9.00;82.90
17307;DHT22;8771;48.048;7.682;2022-11-20T05:13:34;9.10;82.90
17307;DHT22;8771;48.048;7.682;2022-11-20T05:18:37;9.10;82.90
17307;DHT22;8771;48.048;7.682;2022-11-20T05:23:40;9.10;82.90
17307;DHT22;8771;48.048;7.682;2022-11-20T05:28:43;9.10;82.90
17307;DHT22;8771;48.048;7.682;2022-11-20T05:33:46;9.10;82.90
17307;DHT22;8771;48.048;7.682;2022-11-20T05:38:49;9.00;82.90
17307;DHT22;8771;48.048;7.682;2022-11-20T05:43:52;9.00;83.00
17307;DHT22;8771;48.048;7.682;2022-11-20T05:48:54;9.10;82.90
17307;DHT22;8771;48.048;7.682;2022-11-20T05:53:56;9.10;82.90
17307;DHT22;8771;48.048;7.682;2022-11-20T05:59:00;9.10;82.90
17307;DHT22;8771;48.048;7.682;2022-11-20T06:04:02;9.10;82.90
17307;DHT22;8771;48.048;7.682;2022-11-20T06:09:04;9.10;82.90
17307;DHT22;8771;48.048;7.682;2022-11-20T06:14:07;9.10;82.90
17307;DHT22;8771;48.048;7.682;2022-11-20T06:19:09;9.10;82.90
17307;DHT22;8771;48.048;7.682;2022-11-20T06:24:11;9.10;82.90
17307;DHT22;8771;48.048;7.682;2022-11-20T06:29:15;9.10;82.90
17307;DHT22;8771;48.048;7.682;2022-11-20T06:34:17;9.10;82.80
17307;DHT22;8771;48.048;7.682;2022-11-20T06:39:19;9.10;82.80
17307;DHT22;8771;48.048;7.682;2022-11-20T06:44:22;9.10;82.90
17307;DHT22;8771;48.048;7.682;2022-11-20T06:49:24;9.20;82.90
17307;DHT22;8771;48.048;7.682;2022-11-20T06:54:27;9.20;83.60
17307;DHT22;8771;48.048;7.682;2022-11-20T06:59:30;9.20;82.80
17307;DHT22;8771;48.048;7.682;2022-11-20T07:04:32;9.20;82.70
17307;DHT22;8771;48.048;7.682;2022-11-20T07:09:34;9.20;82.70
17307;DHT22;8771;48.048;7.682;2022-11-20T07:14:37;9.20;82.80
17307;DHT22;8771;48.048;7.682;2022-11-20T07:19:39;9.20;82.80
17307;DHT22;8771;48.048;7.682;2022-11-20T07:24:41;9.20;82.70
17307;DHT22;8771;48.048;7.682;2022-11-20T07:29:44;9.30;82.70
17307;DHT22;8771;48.048;7.682;2022-11-20T07:34:46;9.30;82.70
17307;DHT22;8771;48.048;7.682;2022-11-20T07:39:48;9.30;82.70
17307;DHT22;8771;48.048;7.682;2022-11-20T07:44:51;9.30;82.70
17307;DHT22;8771;48.048;7.682;2022-11-20T07:49:53;9.30;82.70
17307;DHT22;8771;48.048;7.682;2022-11-20T07:54:55;9.30;82.80
17307;DHT22;8771;48.048;7.682;2022-11-20T07:59:58;9.30;82.80
17307;DHT22;8771;48.048;7.682;2022-11-20T08:05:00;9.30;82.70
17307;DHT22;8771;48.048;7.682;2022-11-20T08:10:02;9.30;82.70
17307;DHT22;8771;48.048;7.682;2022-11-20T08:15:09;9.30;82.80
17307;DHT22;8771;48.048;7.682;2022-11-20T08:20:11;9.30;82.80
17307;DHT22;8771;48.048;7.682;2022-11-20T08:25:13;9.30;82.70
17307;DHT22;8771;48.048;7.682;2022-11-20T08:30:17;9.40;82.60
17307;DHT22;8771;48.048;7.682;2022-11-20T08:35:21;9.40;82.50
17307;DHT22;8771;48.048;7.682;2022-11-20T08:40:23;9.50;82.50
17307;DHT22;8771;48.048;7.682;2022-11-20T08:45:26;9.60;82.40
17307;DHT22;8771;48.048;7.682;2022-11-20T08:50:29;9.60;82.40
17307;DHT22;8771;48.048;7.682;2022-11-20T08:55:32;9.70;82.40
17307;DHT22;8771;48.048;7.682;2022-11-20T09:00:37;9.70;82.30
17307;DHT22;8771;48.048;7.682;2022-11-20T09:05:39;9.70;82.40
17307;DHT22;8771;48.048;7.682;2022-11-20T09:10:41;9.70;82.30
17307;DHT22;8771;48.048;7.682;2022-11-20T09:15:44;9.80;82.40
17307;DHT22;8771;48.048;7.682;2022-11-20T09:20:46;9.90;82.40
17307;DHT22;8771;48.048;7.682;2022-11-20T09:25:48;9.90;82.30
17307;DHT22;8771;48.048;7.682;2022-11-20T09:30:52;10.00;82.30
17307;DHT22;8771;48.048;7.682;2022-11-20T09:35:53;10.10;82.20
17307;DHT22;8771;48.048;7.682;2022-11-20T09:40:57;10.20;82.10
17307;DHT22;8771;48.048;7.682;2022-11-20T09:52:00;10.30;81.90
17307;DHT22;8771;48.048;7.682;2022-11-20T09:57:05;10.40;81.90
17307;DHT22;8771;48.048;7.682;2022-11-20T10:02:23;10.50;81.90
17307;DHT22;8771;48.048;7.682;2022-11-20T10:07:34;10.50;81.90
17307;DHT22;8771;48.048;7.682;2022-11-20T10:12:51;10.60;81.80
17307;DHT22;8771;48.048;7.682;2022-11-20T10:18:09;10.70;81.70
17307;DHT22;8771;48.048;7.682;2022-11-20T10:23:28;10.90;81.60
17307;DHT22;8771;48.048;7.682;2022-11-20T10:28:50;10.90;81.50
17307;DHT22;8771;48.048;7.682;2022-11-20T10:33:58;11.10;81.50
17307;DHT22;8771;48.048;7.682;2022-11-20T10:39:07;11.30;81.20
17307;DHT22;8771;48.048;7.682;2022-11-20T10:44:15;11.40;81.10
17307;DHT22;8771;48.048;7.682;2022-11-20T10:49:38;11.60;81.00
17307;DHT22;8771;48.048;7.682;2022-11-20T10:54:46;11.60;81.00
17307;DHT22;8771;48.048;7.682;2022-11-20T11:00:00;11.70;81.10
17307;DHT22;8771;48.048;7.682;2022-11-20T11:05:12;11.70;81.20
17307;DHT22;8771;48.048;7.682;2022-11-20T11:10:20;11.80;81.20
17307;DHT22;8771;48.048;7.682;2022-11-20T11:15:29;11.90;81.00
17307;DHT22;8771;48.048;7.682;2022-11-20T11:20:31;12.10;80.80
17307;DHT22;8771;48.048;7.682;2022-11-20T11:25:36;12.30;80.60
17307;DHT22;8771;48.048;7.682;2022-11-20T11:30:43;12.40;80.50
17307;DHT22;8771;48.048;7.682;2022-11-20T11:35:46;12.50;80.40
17307;DHT22;8771;48.048;7.682;2022-11-20T11:40:53;12.80;80.40
17307;DHT22;8771;48.048;7.682;2022-11-20T11:45:57;13.10;80.10
17307;DHT22;8771;48.048;7.682;2022-11-20T11:50:59;13.40;79.60
17307;DHT22;8771;48.048;7.682;2022-11-20T11:56:07;13.70;79.40
17307;DHT22;8771;48.048;7.682;2022-11-20T12:01:21;14.00;79.20
17307;DHT22;8771;48.048;7.682;2022-11-20T12:06:26;14.40;78.80
17307;DHT22;8771;48.048;7.682;2022-11-20T12:11:37;14.70;78.70
17307;DHT22;8771;48.048;7.682;2022-11-20T12:16:40;14.90;78.60
17307;DHT22;8771;48.048;7.682;2022-11-20T12:21:51;15.00;78.60
17307;DHT22;8771;48.048;7.682;2022-11-20T12:27:05;15.10;78.60
17307;DHT22;8771;48.048;7.682;2022-11-20T12:32:44;15.20;78.70
17307;DHT22;8771;48.048;7.682;2022-11-20T12:37:57;15.40;78.60
17307;DHT22;8771;48.048;7.682;2022-11-20T12:43:15;15.50;78.50
17307;DHT22;8771;48.048;7.682;2022-11-20T12:48:42;15.50;78.40
17307;DHT22;8771;48.048;7.682;2022-11-20T12:53:59;15.80;78.20
17307;DHT22;8771;48.048;7.682;2022-11-20T12:59:16;15.90;78.10
17307;DHT22;8771;48.048;7.682;2022-11-20T13:04:42;16.10;78.10
17307;DHT22;8771;48.048;7.682;2022-11-20T13:09:49;16.20;77.90
17307;DHT22;8771;48.048;7.682;2022-11-20T13:14:57;16.20;77.90
17307;DHT22;8771;48.048;7.682;2022-11-20T13:20:05;16.10;78.20
17307;DHT22;8771;48.048;7.682;2022-11-20T13:25:09;16.10;78.40
17307;DHT22;8771;48.048;7.682;2022-11-20T13:30:16;16.10;78.50
17307;DHT22;8771;48.048;7.682;2022-11-20T13:35:28;16.10;78.50
17307;DHT22;8771;48.048;7.682;2022-11-20T13:40:30;16.00;78.50
17307;DHT22;8771;48.048;7.682;2022-11-20T13:45:33;15.80;78.70
17307;DHT22;8771;48.048;7.682;2022-11-20T13:50:44;15.60;79.00
17307;DHT22;8771;48.048;7.682;2022-11-20T13:55:50;15.30;79.50
17307;DHT22;8771;48.048;7.682;2022-11-20T14:01:00;15.10;79.80
17307;DHT22;8771;48.048;7.682;2022-11-20T14:06:05;14.80;79.90
17307;DHT22;8771;48.048;7.682;2022-11-20T14:11:16;14.60;80.10
17307;DHT22;8771;48.048;7.682;2022-11-20T14:16:21;14.40;80.30
17307;DHT22;8771;48.048;7.682;2022-11-20T14:21:24;14.20;80.50
17307;DHT22;8771;48.048;7.682;2022-11-20T14:26:27;14.00;80.60
17307;DHT22;8771;48.048;7.682;2022-11-20T14:31:30;13.90;80.60
17307;DHT22;8771;48.048;7.682;2022-11-20T14:36:32;13.70;80.80
17307;DHT22;8771;48.048;7.682;2022-11-20T14:41:34;13.50;80.80
17307;DHT22;8771;48.048;7.682;2022-11-20T14:46:38;13.30;80.90
17307;DHT22;8771;48.048;7.682;2022-11-20T14:51:40;13.20;81.00
17307;DHT22;8771;48.048;7.682;2022-11-20T14:56:53;13.00;81.00
17307;DHT22;8771;48.048;7.682;2022-11-20T15:02:00;12.90;81.10
17307;DHT22;8771;48.048;7.682;2022-11-20T15:07:02;12.80;81.00
17307;DHT22;8771;48.048;7.682;2022-11-20T15:12:05;12.70;81.00
17307;DHT22;8771;48.048;7.682;2022-11-20T15:17:10;12.50;81.00
17307;DHT22;8771;48.048;7.682;2022-11-20T15:27:16;12.30;80.50
17307;DHT22;8771;48.048;7.682;2022-11-20T15:32:20;12.20;81.10
17307;DHT22;8771;48.048;7.682;2022-11-20T15:37:22;12.10;81.10
17307;DHT22;8771;48.048;7.682;2022-11-20T15:42:24;12.10;81.10
17307;DHT22;8771;48.048;7.682;2022-11-20T15:47:29;12.00;81.10
17307;DHT22;8771;48.048;7.682;2022-11-20T15:52:32;11.90;81.10
17307;DHT22;8771;48.048;7.682;2022-11-20T15:57:34;11.70;81.10
17307;DHT22;8771;48.048;7.682;2022-11-20T16:02:37;11.70;81.20
17307;DHT22;8771;48.048;7.682;2022-11-20T16:07:39;11.60;81.20
17307;DHT22;8771;48.048;7.682;2022-11-20T16:12:41;11.50;81.10
17307;DHT22;8771;48.048;7.682;2022-11-20T16:18:02;11.50;81.20
17307;DHT22;8771;48.048;7.682;2022-11-20T16:23:04;11.30;81.20
17307;DHT22;8771;48.048;7.682;2022-11-20T16:28:07;11.30;81.30
17307;DHT22;8771;48.048;7.682;2022-11-20T16:33:12;11.20;81.30
17307;DHT22;8771;48.048;7.682;2022-11-20T16:38:32;11.10;81.30
17307;DHT22;8771;48.048;7.682;2022-11-20T16:43:35;11.10;81.20
17307;DHT22;8771;48.048;7.682;2022-11-20T16:48:40;11.00;81.20
17307;DHT22;8771;48.048;7.682;2022-11-20T16:53:43;10.90;81.20
17307;DHT22;8771;48.048;7.682;2022-11-20T16:58:47;10.90;81.20
17307;DHT22;8771;48.048;7.682;2022-11-20T17:03:56;10.80;81.00
17307;DHT22;8771;48.048;7.682;2022-11-20T17:08:59;10.80;81.00
17307;DHT22;8771;48.048;7.682;2022-11-20T17:14:03;10.80;81.00
17307;DHT22;8771;48.048;7.682;2022-11-20T17:19:09;10.70;80.90
17307;DHT22;8771;48.048;7.682;2022-11-20T17:24:12;10.70;80.90
17307;DHT22;8771;48.048;7.682;2022-11-20T17:29:18;10.70;80.80
17307;DHT22;8771;48.048;7.682;2022-11-20T17:34:26;10.60;80.80
17307;DHT22;8771;48.048;7.682;2022-11-20T17:39:29;10.60;80.80
17307;DHT22;8771;48.048;7.682;2022-11-20T17:44:32;10.50;80.80
17307;DHT22;8771;48.048;7.682;2022-11-20T17:49:37;10.50;80.80
17307;DHT22;8771;48.048;7.682;2022-11-20T17:54:39;10.30;80.60
17307;DHT22;8771;48.048;7.682;2022-11-20T17:59:42;10.10;80.80
17307;DHT22;8771;48.048;7.682;2022-11-20T18:04:47;9.90;80.90
17307;DHT22;8771;48.048;7.682;2022-11-20T18:09:50;9.70;81.10
17307;DHT22;8771;48.048;7.682;2022-11-20T18:14:53;9.60;81.20
17307;DHT22;8771;48.048;7.682;2022-11-20T18:19:57;9.40;81.30
17307;DHT22;8771;48.048;7.682;2022-11-20T18:25:00;9.30;81.50
17307;DHT22;8771;48.048;7.682;2022-11-20T18:30:03;9.20;81.50
17307;DHT22;8771;48.048;7.682;2022-11-20T18:35:08;9.20;81.50
17307;DHT22;8771;48.048;7.682;2022-11-20T18:40:12;9.20;81.50
17307;DHT22;8771;48.048;7.682;2022-11-20T18:45:15;9.10;82.10
17307;DHT22;8771;48.048;7.682;2022-11-20T18:50:19;9.10;81.40
17307;DHT22;8771;48.048;7.682;2022-11-20T18:55:22;9.10;81.40
17307;DHT22;8771;48.048;7.682;2022-11-20T19:00:26;9.00;81.30
17307;DHT22;8771;48.048;7.682;2022-11-20T19:05:31;9.00;81.30
17307;DHT22;8771;48.048;7.682;2022-11-20T19:10:37;9.00;81.30
17307;DHT22;8771;48.048;7.682;2022-11-20T19:15:41;9.00;81.30
17307;DHT22;8771;48.048;7.682;2022-11-20T19:20:45;9.00;81.30
17307;DHT22;8771;48.048;7.682;2022-11-20T19:25:48;8.90;81.30
17307;DHT22;8771;48.048;7.682;2022-11-20T19:30:51;8.90;81.30
17307;DHT22;8771;48.048;7.682;2022-11-20T19:35:55;8.80;81.30
17307;DHT22;8771;48.048;7.682;2022-11-20T19:40:59;8.70;81.30
17307;DHT22;8771;48.048;7.682;2022-11-20T19:46:02;8.70;81.30
17307;DHT22;8771;48.048;7.682;2022-11-20T19:51:11;8.70;81.30
17307;DHT22;8771;48.048;7.682;2022-11-20T19:56:14;8.70;81.30
17307;DHT22;8771;48.048;7.682;2022-11-20T20:01:19;8.70;81.30
17307;DHT22;8771;48.048;7.682;2022-11-20T20:06:24;8.70;81.30
17307;DHT22;8771;48.048;7.682;2022-11-20T20:17:25;8.60;81.20
17307;DHT22;8771;48.048;7.682;2022-11-20T20:22:30;8.50;81.20
17307;DHT22;8771;48.048;7.682;2022-11-20T20:27:33;8.50;81.20
17307;DHT22;8771;48.048;7.682;2022-11-20T20:32:37;8.40;81.20
17307;DHT22;8771;48.048;7.682;2022-11-20T20:37:41;8.40;81.40
17307;DHT22;8771;48.048;7.682;2022-11-20T20:42:44;8.30;81.30
17307;DHT22;8771;48.048;7.682;2022-11-20T20:47:47;8.30;81.40
17307;DHT22;8771;48.048;7.682;2022-11-20T20:52:51;8.20;81.40
17307;DHT22;8771;48.048;7.682;2022-11-20T20:57:54;8.10;81.60
17307;DHT22;8771;48.048;7.682;2022-11-20T21:02:57;8.00;81.70
17307;DHT22;8771;48.048;7.682;2022-11-20T21:08:02;8.00;81.70
17307;DHT22;8771;48.048;7.682;2022-11-20T21:13:23;8.00;81.90
17307;DHT22;8771;48.048;7.682;2022-11-20T21:18:26;7.90;81.70
17307;DHT22;8771;48.048;7.682;2022-11-20T21:23:34;7.80;81.60
17307;DHT22;8771;48.048;7.682;2022-11-20T21:28:37;7.80;81.70
17307;DHT22;8771;48.048;7.682;2022-11-20T21:33:41;7.80;81.80
17307;DHT22;8771;48.048;7.682;2022-11-20T21:38:47;7.70;81.80
17307;DHT22;8771;48.048;7.682;2022-11-20T21:43:50;7.70;81.80
17307;DHT22;8771;48.048;7.682;2022-11-20T21:48:53;7.60;81.80
17307;DHT22;8771;48.048;7.682;2022-11-20T21:53:57;7.60;81.80
17307;DHT22;8771;48.048;7.682;2022-11-20T21:59:00;7.60;81.80
17307;DHT22;8771;48.048;7.682;2022-11-20T22:04:04;7.70;81.80
17307;DHT22;8771;48.048;7.682;2022-11-20T22:09:10;7.70;81.70
17307;DHT22;8771;48.048;7.682;2022-11-20T22:14:13;7.70;81.60
17307;DHT22;8771;48.048;7.682;2022-11-20T22:19:24;7.80;81.60
17307;DHT22;8771;48.048;7.682;2022-11-20T22:24:29;7.80;81.50
17307;DHT22;8771;48.048;7.682;2022-11-20T22:29:32;7.80;81.40
17307;DHT22;8771;48.048;7.682;2022-11-20T22:34:35;7.80;81.50
17307;DHT22;8771;48.048;7.682;2022-11-20T22:39:39;7.80;81.50
17307;DHT22;8771;48.048;7.682;2022-11-20T22:44:42;7.80;81.50
17307;DHT22;8771;48.048;7.682;2022-11-20T22:49:45;7.80;81.50
17307;DHT22;8771;48.048;7.682;2022-11-20T22:54:49;7.90;81.50
17307;DHT22;8771;48.048;7.682;2022-11-20T22:59:52;7.90;81.50
17307;DHT22;8771;48.048;7.682;2022-11-20T23:04:55;8.00;81.50
17307;DHT22;8771;48.048;7.682;2022-11-20T23:09:59;8.00;81.40
17307;DHT22;8771;48.048;7.682;2022-11-20T23:15:01;8.00;81.40
17307;DHT22;8771;48.048;7.682;2022-11-20T23:20:06;8.00;81.40
17307;DHT22;8771;48.048;7.682;2022-11-20T23:25:09;8.10;81.40
17307;DHT22;8771;48.048;7.682;2022-11-20T23:30:12;8.10;81.40
17307;DHT22;8771;48.048;7.682;2022-11-20T23:35:17;8.10;81.40
17307;DHT22;8771;48.048;7.682;2022-11-20T23:40:20;8.10;81.40
17307;DHT22;8771;48.048;7.682;2022-11-20T23:45:22;8.10;81.60
17307;DHT22;8771;48.048;7.682;2022-11-20T23:50:24;8.10;81.60
17307;DHT22;8771;48.048;7.682;2022-11-20T23:55:27;8.10;81.60
